powered by Meteolive.it
Dati meteo   Attuali  Passati Ogni 3 ore 7 Giorni 15 Giorni Avvisi Meteo Mappe meteo
Palermo / Punta Raisi, Italy
Alba: 6:20 AM UTC1
Tramonto: 5:22 PM UTC1
 Lat: 38.17N, Lon: 13.08E
ICAO Usato: LICJ
Condizioni Meteo Attuali Aggiornate: 21.10.2017 alle 11:20 LT
Quasi Sereno
Quasi Sereno
Sereno
Quasi Sereno
Temp: 21°C
Umidita': 73%
Direz/Vel. Vento: N 03 KTS raffiche
Pressione: 1020 hPa
Punto di rugiada: 16°C
Temperatura percepita: 21°C
Visibilitą: N/D
Temperatura percepita in
presenza di vento (Wind Chill)
:
N/D
T. max (ultime 24 ore): 21°C
T. min (ultime 24 ore): 17°C


METAR ORIGINALE
LICJ 210720Z 01003KT 330V030 CAVOK 21/16 Q1020